createdAt,value
2023-03-28T00:01:11.905Z,101064.97
2023-03-28T00:03:41.178Z,101062.31
2023-03-28T00:06:16.868Z,101077.28
2023-03-28T00:08:48.261Z,101080.09
2023-03-28T00:11:20.273Z,101099.56
2023-03-28T00:13:58.246Z,101093.53
2023-03-28T00:16:39.582Z,101103.19
2023-03-28T00:19:11.901Z,101114.81
2023-03-28T00:21:41.696Z,101118.31
2023-03-28T00:24:14.025Z,101116.75
2023-03-28T00:26:43.636Z,101120.34
2023-03-28T00:29:21.525Z,101118.53
2023-03-28T00:31:50.506Z,101127.50
2023-03-28T00:34:19.290Z,101129.31
2023-03-28T00:36:47.714Z,101132.81
2023-03-28T00:39:16.651Z,101130.28
2023-03-28T00:41:45.448Z,101138.97
2023-03-28T00:44:51.968Z,101138.13
2023-03-28T00:47:44.083Z,101147.06
2023-03-28T00:50:37.025Z,101142.63
2023-03-28T00:53:15.896Z,101142.75
2023-03-28T00:55:56.167Z,101143.56
2023-03-28T00:58:27.192Z,101151.81
2023-03-28T01:00:56.524Z,101150.84
2023-03-28T01:03:30.757Z,101152.66
2023-03-28T01:06:02.035Z,101152.75
2023-03-28T01:08:44.549Z,101152.88
2023-03-28T01:11:13.731Z,101162.69
2023-03-28T01:13:46.583Z,101173.31
2023-03-28T01:16:16.155Z,101180.47
2023-03-28T01:18:51.843Z,101175.97
2023-03-28T01:22:06.761Z,101183.97
2023-03-28T01:25:14.999Z,101183.97
2023-03-28T01:28:03.869Z,101187.56
2023-03-28T01:31:16.985Z,101185.91
2023-03-28T01:34:36.036Z,101191.22
2023-03-28T01:37:37.526Z,101192.16
2023-03-28T01:40:37.358Z,101188.78
2023-03-28T01:43:16.404Z,101200.28
2023-03-28T01:45:59.506Z,101208.28
2023-03-28T01:48:43.205Z,101203.78
2023-03-28T01:51:57.677Z,101210.22
2023-03-28T01:54:33.674Z,101211.88
2023-03-28T01:57:12.984Z,101209.34
2023-03-28T01:59:49.423Z,101211.25
2023-03-28T02:03:00.856Z,101201.50
2023-03-28T02:05:36.105Z,101205.84
2023-03-28T02:08:11.054Z,101206.81
2023-03-28T02:10:44.645Z,101210.53
2023-03-28T02:14:07.540Z,101219.97
2023-03-28T02:17:09.659Z,101223.84
2023-03-28T02:20:00.009Z,101235.34
2023-03-28T02:23:14.499Z,101222.25
2023-03-28T02:26:09.354Z,101233.75
2023-03-28T02:28:58.237Z,101226.84
2023-03-28T02:31:50.483Z,101234.72
2023-03-28T02:34:20.236Z,101226.84
2023-03-28T02:36:59.722Z,101237.50
2023-03-28T02:39:46.965Z,101234.94
2023-03-28T02:42:43.090Z,101231.34
2023-03-28T02:45:22.616Z,101230.59
2023-03-28T02:48:02.637Z,101236.88
2023-03-28T02:51:30.577Z,101236.03
2023-03-28T02:54:43.398Z,101236.13
2023-03-28T02:57:35.279Z,101246.56
2023-03-28T03:00:12.582Z,101245.81
2023-03-28T03:02:51.837Z,101250.16
2023-03-28T03:05:22.265Z,101245.81
2023-03-28T03:07:51.702Z,101246.66
2023-03-28T03:10:22.432Z,101249.53
2023-03-28T03:12:51.107Z,101240.72
2023-03-28T03:15:20.241Z,101252.31
2023-03-28T03:17:59.118Z,101243.38
2023-03-28T03:20:34.364Z,101252.44
2023-03-28T03:23:04.609Z,101249.06
2023-03-28T03:25:36.122Z,101249.91
2023-03-28T03:28:25.199Z,101260.53
2023-03-28T03:30:54.145Z,101264.03
2023-03-28T03:33:42.727Z,101269.34
2023-03-28T03:36:17.301Z,101273.94
2023-03-28T03:38:48.028Z,101270.44
2023-03-28T03:41:22.939Z,101273.94
2023-03-28T03:43:51.624Z,101271.38
2023-03-28T03:46:20.702Z,101257.34
2023-03-28T03:48:50.899Z,101269.72
2023-03-28T03:51:20.490Z,101267.16
2023-03-28T03:53:52.304Z,101269.91
2023-03-28T03:56:24.983Z,101277.91
2023-03-28T03:59:02.533Z,101282.38
2023-03-28T04:01:34.530Z,101284.06
2023-03-28T04:04:26.627Z,101283.31
2023-03-28T04:07:21.576Z,101285.88
2023-03-28T04:09:53.075Z,101287.78
2023-03-28T04:12:21.974Z,101286.13
2023-03-28T04:14:52.642Z,101280.78
2023-03-28T04:17:36.614Z,101288.88
2023-03-28T04:20:13.470Z,101296.97
2023-03-28T04:23:08.674Z,101305.69
2023-03-28T04:25:41.910Z,101312.91
2023-03-28T04:28:28.315Z,101304.00
2023-03-28T04:31:05.326Z,101308.44
2023-03-28T04:34:00.637Z,101307.81
2023-03-28T04:36:32.424Z,101314.72
2023-03-28T04:39:04.970Z,101315.69
2023-03-28T04:41:55.777Z,101317.59
2023-03-28T04:44:24.654Z,101316.75
2023-03-28T04:47:01.225Z,101309.72
2023-03-28T04:49:30.137Z,101309.72
2023-03-28T04:51:58.774Z,101309.72
2023-03-28T04:54:27.639Z,101315.06
2023-03-28T04:57:07.496Z,101308.06
2023-03-28T04:59:47.846Z,101317.84
2023-03-28T05:02:30.661Z,101316.97
2023-03-28T05:05:04.557Z,101317.94
2023-03-28T05:07:34.499Z,101322.28
2023-03-28T05:10:03.874Z,101338.25
2023-03-28T05:12:37.816Z,101334.75
2023-03-28T05:15:07.551Z,101341.88
2023-03-28T05:17:48.049Z,101346.34
2023-03-28T05:20:22.850Z,101345.47
2023-03-28T05:22:56.166Z,101337.50
2023-03-28T05:25:26.386Z,101346.47
2023-03-28T05:27:56.848Z,101343.78
2023-03-28T05:30:26.616Z,101342.81
2023-03-28T05:32:58.786Z,101345.59
2023-03-28T05:35:30.322Z,101351.03
2023-03-28T05:37:59.173Z,101363.34
2023-03-28T05:40:27.889Z,101357.19
2023-03-28T05:42:56.460Z,101357.00
2023-03-28T05:45:25.891Z,101366.00
2023-03-28T05:48:01.424Z,101371.31
2023-03-28T05:50:31.970Z,101382.81
2023-03-28T05:53:06.723Z,101382.06
2023-03-28T05:55:36.121Z,101384.63
2023-03-28T05:58:06.490Z,101387.19
2023-03-28T06:00:39.256Z,101390.78
2023-03-28T06:03:09.744Z,101389.09
2023-03-28T06:05:46.687Z,101385.59
2023-03-28T06:08:23.740Z,101393.56
2023-03-28T06:10:52.809Z,101395.25
2023-03-28T06:13:29.225Z,101398.88
2023-03-28T06:15:58.431Z,101396.22
2023-03-28T06:18:33.391Z,101403.22
2023-03-28T06:21:02.643Z,101406.97
2023-03-28T06:23:31.338Z,101409.00
2023-03-28T06:26:02.851Z,101409.31
2023-03-28T06:28:38.797Z,101409.63
2023-03-28T06:31:30.243Z,101421.44
2023-03-28T06:33:58.792Z,101416.34
2023-03-28T06:36:27.634Z,101424.50
2023-03-28T06:38:58.572Z,101423.84
2023-03-28T06:41:30.142Z,101434.38
2023-03-28T06:43:59.190Z,101436.09
2023-03-28T06:46:46.772Z,101441.50
2023-03-28T06:49:15.510Z,101453.94
2023-03-28T06:52:13.461Z,101449.69
2023-03-28T06:54:44.432Z,101455.22
2023-03-28T06:57:14.520Z,101452.22
2023-03-28T06:59:43.751Z,101457.56
2023-03-28T07:02:19.256Z,101462.88
2023-03-28T07:04:48.353Z,101468.28
2023-03-28T07:07:17.698Z,101484.44
2023-03-28T07:09:49.126Z,101480.72
2023-03-28T07:12:19.193Z,101487.94
2023-03-28T07:14:47.906Z,101491.34
2023-03-28T07:17:16.989Z,101496.47
2023-03-28T07:19:46.255Z,101497.75
2023-03-28T07:22:15.639Z,101503.66
2023-03-28T07:24:44.097Z,101496.66
2023-03-28T07:27:16.596Z,101514.09
2023-03-28T07:29:47.475Z,101513.47
2023-03-28T07:32:17.289Z,101518.88
2023-03-28T07:34:47.433Z,101522.59
2023-03-28T07:37:22.918Z,101518.66
2023-03-28T07:40:14.675Z,101524.56
2023-03-28T07:42:43.975Z,101523.41
2023-03-28T07:45:12.562Z,101526.06
2023-03-28T07:47:41.849Z,101530.31
2023-03-28T07:50:10.725Z,101538.94
2023-03-28T07:52:45.874Z,101543.28
2023-03-28T07:55:15.264Z,101547.84
2023-03-28T07:57:49.132Z,101545.25
2023-03-28T08:00:28.550Z,101547.03
2023-03-28T08:03:20.352Z,101555.75
2023-03-28T08:05:52.289Z,101556.16
2023-03-28T08:08:23.388Z,101555.13
2023-03-28T08:11:14.963Z,101563.66
2023-03-28T08:13:44.063Z,101566.50
2023-03-28T08:16:23.626Z,101568.31
2023-03-28T08:19:09.372Z,101566.59
2023-03-28T08:21:48.970Z,101564.13
2023-03-28T08:24:28.858Z,101566.44
2023-03-28T08:27:09.281Z,101566.13
2023-03-28T08:29:38.037Z,101570.09
2023-03-28T08:32:07.999Z,101564.97
2023-03-28T08:34:38.293Z,101571.50
2023-03-28T08:37:13.247Z,101571.91
2023-03-28T08:39:45.937Z,101577.78
2023-03-28T08:42:46.859Z,101576.81
2023-03-28T08:45:38.745Z,101577.50
2023-03-28T08:48:31.453Z,101577.59
2023-03-28T08:51:28.925Z,101580.63
2023-03-28T08:54:14.850Z,101588.03
2023-03-28T08:56:55.957Z,101578.47
2023-03-28T08:59:48.419Z,101578.22
2023-03-28T09:02:21.872Z,101571.34
2023-03-28T09:04:50.867Z,101575.31
2023-03-28T09:07:56.204Z,101571.56
2023-03-28T09:10:42.817Z,101577.97
2023-03-28T09:13:52.495Z,101579.22
2023-03-28T09:16:57.575Z,101585.38
2023-03-28T09:19:48.248Z,101573.06
2023-03-28T09:23:01.342Z,101567.56
2023-03-28T09:25:58.872Z,101562.84
2023-03-28T09:28:55.034Z,101569.16
2023-03-28T09:31:28.280Z,101570.84
2023-03-28T09:34:00.602Z,101575.75
2023-03-28T09:36:48.916Z,101578.06
2023-03-28T09:39:54.675Z,101580.81
2023-03-28T09:42:56.006Z,101573.25
2023-03-28T09:45:36.438Z,101582.75
2023-03-28T09:48:28.854Z,101582.41
2023-03-28T09:51:02.630Z,101577.72
2023-03-28T09:53:34.563Z,101576.25
2023-03-28T09:56:16.983Z,101580.28
2023-03-28T09:58:59.942Z,101586.44
2023-03-28T10:01:49.412Z,101583.88
2023-03-28T10:04:39.352Z,101589.09
2023-03-28T10:07:43.267Z,101578.63
2023-03-28T10:10:25.346Z,101586.47
2023-03-28T10:13:10.050Z,101573.66
2023-03-28T10:15:47.219Z,101574.19
2023-03-28T10:18:34.071Z,101578.91
2023-03-28T10:21:30.457Z,101581.56
2023-03-28T10:24:13.314Z,101576.16
2023-03-28T10:26:44.510Z,101576.81
2023-03-28T10:29:13.117Z,101575.75
2023-03-28T10:31:47.922Z,101574.28
2023-03-28T10:34:39.303Z,101577.72
2023-03-28T10:37:37.543Z,101578.06
2023-03-28T10:40:32.553Z,101576.75
2023-03-28T10:43:14.850Z,101585.94
2023-03-28T10:45:51.082Z,101569.78
2023-03-28T10:48:39.694Z,101585.31
2023-03-28T10:51:22.258Z,101574.66
2023-03-28T10:54:06.766Z,101573.41
2023-03-28T10:56:52.951Z,101574.34
2023-03-28T11:00:07.005Z,101567.75
2023-03-28T11:03:06.477Z,101570.66
2023-03-28T11:06:08.965Z,101570.66
2023-03-28T11:09:10.912Z,101575.75
2023-03-28T11:12:56.780Z,101568.50
2023-03-28T11:15:41.422Z,101563.00
2023-03-28T11:24:29.422Z,101567.84
2023-03-28T11:27:54.484Z,101565.75
2023-03-28T11:30:36.501Z,101551.50
2023-03-28T11:33:44.115Z,101554.28
2023-03-28T11:36:53.735Z,101547.25
2023-03-28T11:39:35.299Z,101554.94
2023-03-28T11:42:10.316Z,101544.50
2023-03-28T11:45:12.931Z,101543.09
2023-03-28T11:48:19.527Z,101538.44
2023-03-28T11:51:19.504Z,101542.41
2023-03-28T11:54:32.474Z,101538.59
2023-03-28T11:57:13.228Z,101535.72
2023-03-28T12:00:33.819Z,101533.06
2023-03-28T12:03:25.956Z,101531.47
2023-03-28T12:06:21.611Z,101527.22
2023-03-28T12:09:13.659Z,101527.97
2023-03-28T12:12:02.485Z,101523.41
2023-03-28T12:14:45.032Z,101519.88
2023-03-28T12:17:55.536Z,101528.13
2023-03-28T12:21:08.451Z,101532.56
2023-03-28T12:24:30.092Z,101523.84
2023-03-28T12:27:09.835Z,101511.13
2023-03-28T12:29:56.881Z,101516.94
2023-03-28T12:32:43.902Z,101499.75
2023-03-28T12:35:51.392Z,101496.47
2023-03-28T12:38:29.392Z,101504.22
2023-03-28T12:41:23.233Z,101505.31
2023-03-28T12:44:21.028Z,101492.78
2023-03-28T12:46:56.956Z,101499.38
2023-03-28T12:49:48.455Z,101491.81
2023-03-28T12:52:32.822Z,101497.56
2023-03-28T12:55:31.762Z,101484.69
2023-03-28T12:58:24.015Z,101482.03
2023-03-28T13:01:07.442Z,101481.13
2023-03-28T13:04:00.538Z,101483.72
2023-03-28T13:07:01.332Z,101481.63
2023-03-28T13:10:14.995Z,101479.50
2023-03-28T13:13:10.988Z,101482.06
2023-03-28T13:15:59.393Z,101478.84
2023-03-28T13:18:31.983Z,101472.47
2023-03-28T13:21:04.562Z,101467.16
2023-03-28T13:23:46.364Z,101460.94
2023-03-28T13:26:15.219Z,101480.31
2023-03-28T13:28:47.271Z,101472.88
2023-03-28T13:31:25.850Z,101472.47
2023-03-28T13:34:01.193Z,101469.06
2023-03-28T13:36:34.534Z,101464.69
2023-03-28T13:39:10.074Z,101463.41
2023-03-28T13:41:42.008Z,101462.78
2023-03-28T13:44:20.719Z,101453.50
2023-03-28T13:46:50.778Z,101459.47
2023-03-28T13:49:51.506Z,101452.00
2023-03-28T13:52:24.224Z,101456.25
2023-03-28T13:54:55.883Z,101454.34
2023-03-28T13:57:28.006Z,101450.19
2023-03-28T14:00:01.686Z,101447.63
2023-03-28T14:02:52.950Z,101446.75
2023-03-28T14:05:30.727Z,101446.66
2023-03-28T14:08:24.244Z,101440.47
2023-03-28T14:10:53.038Z,101441.13
2023-03-28T14:13:28.908Z,101437.75
2023-03-28T14:15:57.511Z,101434.44
2023-03-28T14:18:36.590Z,101430.50
2023-03-28T14:21:08.613Z,101438.50
2023-03-28T14:23:39.869Z,101433.63
2023-03-28T14:26:18.942Z,101436.47
2023-03-28T14:28:47.927Z,101425.00
2023-03-28T14:31:30.431Z,101424.25
2023-03-28T14:34:01.233Z,101419.06
2023-03-28T14:36:31.411Z,101426.31
2023-03-28T14:39:13.832Z,101419.09
2023-03-28T14:41:42.618Z,101418.97
2023-03-28T14:44:12.910Z,101413.75
2023-03-28T14:46:41.433Z,101415.78
2023-03-28T14:49:16.184Z,101421.19
2023-03-28T14:51:48.803Z,101412.34
2023-03-28T14:54:27.894Z,101417.53
2023-03-28T14:56:57.489Z,101415.63
2023-03-28T14:59:41.022Z,101428.88
2023-03-28T15:02:26.610Z,101416.31
2023-03-28T15:04:59.082Z,101409.97
2023-03-28T15:07:28.544Z,101415.88
2023-03-28T15:10:10.459Z,101412.19
2023-03-28T15:13:18.397Z,101414.94
2023-03-28T15:15:47.819Z,101413.38
2023-03-28T15:18:25.429Z,101406.34
2023-03-28T15:20:57.383Z,101392.91
2023-03-28T15:23:32.265Z,101397.34
2023-03-28T15:26:14.261Z,101402.00
2023-03-28T15:28:42.780Z,101395.00
2023-03-28T15:31:11.959Z,101397.44
2023-03-28T15:33:40.449Z,101403.38
2023-03-28T15:36:32.821Z,101408.47
2023-03-28T15:39:22.919Z,101406.38
2023-03-28T15:42:20.330Z,101411.53
2023-03-28T15:44:57.951Z,101408.09
2023-03-28T15:47:32.088Z,101420.25
2023-03-28T15:50:07.013Z,101417.16
2023-03-28T15:52:35.952Z,101417.81
2023-03-28T15:55:04.824Z,101419.91
2023-03-28T15:57:33.701Z,101420.63
2023-03-28T16:00:02.234Z,101418.97
2023-03-28T16:02:43.917Z,101419.19
2023-03-28T16:05:15.496Z,101417.91
2023-03-28T16:07:48.640Z,101424.50
2023-03-28T16:10:21.816Z,101415.88
2023-03-28T16:13:14.657Z,101420.31
2023-03-28T16:16:07.110Z,101425.75
2023-03-28T16:18:58.518Z,101431.19
2023-03-28T16:21:27.560Z,101428.53
2023-03-28T16:23:56.458Z,101430.22
2023-03-28T16:26:25.029Z,101443.22
2023-03-28T16:28:54.281Z,101436.75
2023-03-28T16:31:22.884Z,101440.56
2023-03-28T16:33:51.840Z,101433.94
2023-03-28T16:36:20.491Z,101435.00
2023-03-28T16:38:49.982Z,101441.88
2023-03-28T16:41:18.447Z,101434.97
2023-03-28T16:43:47.950Z,101440.78
2023-03-28T16:46:16.679Z,101442.28
2023-03-28T16:48:46.045Z,101437.28
2023-03-28T16:51:14.654Z,101443.59
2023-03-28T16:53:43.580Z,101446.75
2023-03-28T16:56:12.473Z,101448.50
2023-03-28T16:58:42.255Z,101457.13
2023-03-28T17:01:19.310Z,101461.53
2023-03-28T17:03:49.180Z,101459.88
2023-03-28T17:06:18.136Z,101463.72
2023-03-28T17:08:47.147Z,101460.66
2023-03-28T17:11:15.784Z,101451.38
2023-03-28T17:13:47.912Z,101452.97
2023-03-28T17:16:17.132Z,101455.53
2023-03-28T17:18:46.231Z,101455.63
2023-03-28T17:21:15.183Z,101456.25
2023-03-28T17:23:45.910Z,101459.75
2023-03-28T17:26:14.864Z,101459.88
2023-03-28T17:28:44.272Z,101458.19
2023-03-28T17:31:16.945Z,101458.19
2023-03-28T17:33:47.334Z,101459.47
2023-03-28T17:36:25.418Z,101453.06
2023-03-28T17:38:56.929Z,101453.06
2023-03-28T17:41:28.070Z,101456.69
2023-03-28T17:43:57.646Z,101463.94
2023-03-28T17:46:26.944Z,101458.50
2023-03-28T17:48:56.178Z,101465.63
2023-03-28T17:51:24.872Z,101462.03
2023-03-28T17:53:54.321Z,101471.69
2023-03-28T17:56:24.705Z,101474.34
2023-03-28T17:58:53.616Z,101477.00
2023-03-28T18:01:22.625Z,101476.06
2023-03-28T18:03:51.783Z,101482.22
2023-03-28T18:06:40.569Z,101483.06
2023-03-28T18:09:09.487Z,101484.03
2023-03-28T18:11:39.602Z,101490.31
2023-03-28T18:14:08.988Z,101490.22
2023-03-28T18:16:38.962Z,101504.34
2023-03-28T18:19:12.687Z,101509.66
2023-03-28T18:21:41.547Z,101507.84
2023-03-28T18:24:12.540Z,101505.31
2023-03-28T18:26:41.316Z,101520.31
2023-03-28T18:29:11.732Z,101520.94
2023-03-28T18:31:41.869Z,101525.63
2023-03-28T18:34:12.150Z,101521.28
2023-03-28T18:36:42.270Z,101525.63
2023-03-28T18:39:11.792Z,101535.34
2023-03-28T18:41:40.421Z,101538.00
2023-03-28T18:44:11.387Z,101537.25
2023-03-28T18:46:40.576Z,101545.09
2023-03-28T18:49:09.928Z,101545.31
2023-03-28T18:51:39.910Z,101551.28
2023-03-28T18:54:09.343Z,101554.91
2023-03-28T18:56:38.239Z,101558.41
2023-03-28T18:59:07.259Z,101558.53
2023-03-28T19:01:38.336Z,101558.41
2023-03-28T19:04:08.135Z,101555.88
2023-03-28T19:06:36.940Z,101556.81
2023-03-28T19:09:06.510Z,101558.63
2023-03-28T19:11:35.280Z,101565.53
2023-03-28T19:14:04.441Z,101570.97
2023-03-28T19:16:33.165Z,101577.16
2023-03-28T19:19:02.761Z,101572.69
2023-03-28T19:21:31.616Z,101581.59
2023-03-28T19:24:01.104Z,101570.66
2023-03-28T19:26:30.239Z,101580.56
2023-03-28T19:28:59.588Z,101583.22
2023-03-28T19:31:28.459Z,101578.00
2023-03-28T19:33:57.522Z,101582.13
2023-03-28T19:36:26.477Z,101587.78
2023-03-28T19:38:55.759Z,101577.34
2023-03-28T19:41:24.760Z,101586.06
2023-03-28T19:43:55.607Z,101584.38
2023-03-28T19:46:35.260Z,101592.38
2023-03-28T19:49:06.987Z,101581.81
2023-03-28T19:51:36.312Z,101573.75
2023-03-28T19:54:05.801Z,101585.34
2023-03-28T19:56:35.036Z,101584.59
2023-03-28T19:59:04.681Z,101587.25
2023-03-28T20:01:33.780Z,101587.44
2023-03-28T20:04:03.021Z,101595.44
2023-03-28T20:06:31.729Z,101593.75
2023-03-28T20:09:01.404Z,101593.00
2023-03-28T20:11:30.339Z,101589.50
2023-03-28T20:13:59.746Z,101582.47
2023-03-28T20:16:29.076Z,101593.94
2023-03-28T20:18:58.716Z,101598.41
2023-03-28T20:21:30.637Z,101588.75
2023-03-28T20:24:01.117Z,101592.25
2023-03-28T20:26:29.729Z,101589.69
2023-03-28T20:28:59.713Z,101587.88
2023-03-28T20:31:28.712Z,101600.34
2023-03-28T20:33:57.650Z,101603.00
2023-03-28T20:36:26.441Z,101597.66
2023-03-28T20:38:56.717Z,101602.16
2023-03-28T20:41:27.927Z,101598.63
2023-03-28T20:44:03.958Z,101613.63
2023-03-28T20:46:34.952Z,101606.59
2023-03-28T20:49:06.414Z,101604.06
2023-03-28T20:51:39.206Z,101608.41
2023-03-28T20:54:09.110Z,101612.03
2023-03-28T20:56:37.733Z,101601.41
2023-03-28T20:59:06.817Z,101599.69
2023-03-28T21:01:39.734Z,101598.84
2023-03-28T21:04:08.824Z,101593.53
2023-03-28T21:06:38.499Z,101598.75
2023-03-28T21:09:13.708Z,101591.72
2023-03-28T21:11:42.556Z,101588.19
2023-03-28T21:14:13.721Z,101597.03
2023-03-28T21:16:42.724Z,101599.69
2023-03-28T21:19:11.731Z,101609.47
2023-03-28T21:21:40.754Z,101612.22
2023-03-28T21:24:09.664Z,101618.41
2023-03-28T21:26:38.220Z,101624.59
2023-03-28T21:29:07.060Z,101633.41
2023-03-28T21:31:35.594Z,101620.22
2023-03-28T21:34:04.520Z,101606.91
2023-03-28T21:36:33.596Z,101604.34
2023-03-28T21:39:02.830Z,101608.72
2023-03-28T21:41:31.441Z,101613.22
2023-03-28T21:44:00.822Z,101606.16
2023-03-28T21:46:29.438Z,101603.50
2023-03-28T21:48:58.478Z,101599.91
2023-03-28T21:51:27.243Z,101603.50
2023-03-28T21:53:56.139Z,101610.56
2023-03-28T21:56:24.748Z,101614.16
2023-03-28T21:58:53.626Z,101613.31
2023-03-28T22:01:22.109Z,101604.50
2023-03-28T22:03:51.212Z,101602.66
2023-03-28T22:06:19.689Z,101604.50
2023-03-28T22:08:52.770Z,101610.75
2023-03-28T22:11:28.300Z,101612.56
2023-03-28T22:14:02.577Z,101600.22
2023-03-28T22:16:35.153Z,101610.75
2023-03-28T22:19:06.076Z,101615.22
2023-03-28T22:21:34.826Z,101614.47
2023-03-28T22:24:06.414Z,101624.03
2023-03-28T22:26:36.226Z,101624.97
2023-03-28T22:29:05.312Z,101614.47
2023-03-28T22:31:33.981Z,101614.47
2023-03-28T22:34:03.094Z,101617.13
2023-03-28T22:36:31.752Z,101616.25
2023-03-28T22:39:00.795Z,101618.91
2023-03-28T22:41:32.240Z,101616.25
2023-03-28T22:44:01.434Z,101625.22
2023-03-28T22:46:30.204Z,101619.88
2023-03-28T22:48:59.074Z,101626.91
2023-03-28T22:51:28.392Z,101627.88
2023-03-28T22:54:00.655Z,101628.81
2023-03-28T22:56:29.447Z,101628.81
2023-03-28T22:59:01.674Z,101619.13
2023-03-28T23:01:30.436Z,101619.13
2023-03-28T23:03:59.681Z,101619.25
2023-03-28T23:06:28.802Z,101632.44
2023-03-28T23:08:58.933Z,101627.13
2023-03-28T23:11:27.781Z,101625.41
2023-03-28T23:13:56.788Z,101631.69
2023-03-28T23:16:25.298Z,101639.66
2023-03-28T23:18:54.175Z,101636.03
2023-03-28T23:21:23.200Z,101629.03
2023-03-28T23:23:53.570Z,101623.72
2023-03-28T23:26:23.180Z,101613.19
2023-03-28T23:28:52.069Z,101619.44
2023-03-28T23:31:21.142Z,101618.59
2023-03-28T23:33:50.064Z,101622.97
2023-03-28T23:36:21.274Z,101621.34
2023-03-28T23:38:50.310Z,101626.38
2023-03-28T23:41:18.887Z,101641.59
2023-03-28T23:43:47.800Z,101627.41
2023-03-28T23:46:16.495Z,101625.63
2023-03-28T23:48:45.469Z,101625.63
2023-03-28T23:51:14.383Z,101630.94
2023-03-28T23:53:43.370Z,101630.94
2023-03-28T23:56:12.291Z,101629.22
2023-03-28T23:58:41.387Z,101636.25
